Time;durP1;ratioP1;P1;durP2;ratioP2;P2;SDS_P1;SDS_P2;PMS_P1;PMS_P2;Temp;Humidity;BMP_temperature;BMP_pressure;BME280_temperature;BME280_humidity;BME280_pressure;Samples;Min_cycle;Max_cycle;Signal;HPM_P1;HPM_P2
2021/04/05 00:00:16;;;;;;;8.00;2.55;;;17.10;50.50;;;;;;1034981;28;20090;-74
2021/04/05 00:00:47;;;;;;;5.38;2.20;;;17.20;50.40;;;;;;1038453;28;20029;-73
2021/04/05 00:01:19;;;;;;;5.95;2.42;;;17.20;50.50;;;;;;1033291;28;20022;-74
2021/04/05 00:01:50;;;;;;;5.20;2.25;;;17.10;50.50;;;;;;1034844;28;20022;-74
2021/04/05 00:02:22;;;;;;;3.67;2.22;;;17.20;50.60;;;;;;1035438;28;20407;-74
2021/04/05 00:02:54;;;;;;;4.18;2.10;;;17.20;50.60;;;;;;1042255;28;20025;-74
2021/04/05 00:03:25;;;;;;;4.63;2.00;;;17.20;50.80;;;;;;1047786;28;20055;-74
2021/04/05 00:03:57;;;;;;;4.55;2.03;;;17.20;50.80;;;;;;1046195;28;20025;-74
2021/04/05 00:04:29;;;;;;;6.70;2.35;;;17.30;50.60;;;;;;1044401;28;20382;-74
2021/04/05 00:05:00;;;;;;;4.45;2.22;;;17.20;50.60;;;;;;1042518;28;20029;-74
2021/04/05 00:05:36;;;;;;;7.25;2.35;;;17.20;51.20;;;;;;1042925;28;20347;-74
2021/04/05 00:06:07;;;;;;;5.25;1.92;;;17.20;51.30;;;;;;1042574;28;20112;-74
2021/04/05 00:06:38;;;;;;;5.60;2.50;;;17.20;50.50;;;;;;1040577;28;20028;-75
2021/04/05 00:07:10;;;;;;;6.40;2.47;;;17.30;51.10;;;;;;1039085;28;20475;-75
2021/04/05 00:07:42;;;;;;;6.72;2.30;;;17.20;50.40;;;;;;1038717;28;20014;-74
2021/04/05 00:08:14;;;;;;;6.63;2.35;;;17.30;50.60;;;;;;1037949;28;20025;-74
2021/04/05 00:08:46;;;;;;;6.57;2.40;;;17.30;50.90;;;;;;1039500;28;20021;-73
2021/04/05 00:09:17;;;;;;;5.50;2.30;;;17.30;50.80;;;;;;1043074;28;20051;-74
2021/04/05 00:09:48;;;;;;;4.97;2.42;;;17.40;50.30;;;;;;1041304;28;20021;-74
2021/04/05 00:10:32;;;;;;;5.95;2.30;;;17.40;50.00;;;;;;1042253;28;20033;-74
2021/04/05 00:11:03;;;;;;;5.18;2.30;;;17.40;50.00;;;;;;1043243;28;20047;-74
2021/04/05 00:11:35;;;;;;;3.63;2.35;;;17.40;50.10;;;;;;1042684;28;20025;-74
2021/04/05 00:12:10;;;;;;;5.13;2.20;;;17.40;50.10;;;;;;1041906;28;20029;-74
2021/04/05 00:12:41;;;;;;;7.38;2.25;;;17.40;50.20;;;;;;1038131;28;20032;-75
2021/04/05 00:13:17;;;;;;;8.70;2.40;;;17.30;50.20;;;;;;1034187;28;20365;-75
2021/04/05 00:13:48;;;;;;;6.35;2.38;;;17.30;50.20;;;;;;1034833;28;20476;-74
2021/04/05 00:14:20;;;;;;;5.95;2.15;;;17.40;50.20;;;;;;1035337;28;20060;-74
2021/04/05 00:14:52;;;;;;;4.93;2.00;;;17.40;50.30;;;;;;1040349;28;20083;-74
2021/04/05 00:15:23;;;;;;;5.75;2.30;;;17.30;50.30;;;;;;1035625;28;20057;-74
2021/04/05 00:15:55;;;;;;;8.50;2.35;;;17.30;50.20;;;;;;1037293;28;20014;-74
2021/04/05 00:16:27;;;;;;;5.85;2.30;;;17.30;50.40;;;;;;1033712;28;20125;-74
2021/04/05 00:16:58;;;;;;;5.82;2.28;;;17.20;50.50;;;;;;1034369;28;20022;-74
2021/04/05 00:17:30;;;;;;;3.85;2.13;;;17.20;50.40;;;;;;1037510;28;20050;-74
2021/04/05 00:18:01;;;;;;;7.03;2.33;;;17.20;50.30;;;;;;1038542;28;20022;-75
2021/04/05 00:18:32;;;;;;;5.25;2.17;;;17.20;50.10;;;;;;1039155;28;20084;-74
2021/04/05 00:19:04;;;;;;;6.88;2.45;;;17.20;50.20;;;;;;1042562;28;20454;-74
2021/04/05 00:19:39;;;;;;;4.47;2.38;;;17.10;50.20;;;;;;1041837;28;20424;-74
2021/04/05 00:20:15;;;;;;;4.28;2.40;;;17.10;50.30;;;;;;1038388;28;20356;-74
2021/04/05 00:20:56;;;;;;;7.00;2.40;;;17.10;50.40;;;;;;1035115;28;20019;-74
2021/04/05 00:21:29;;;;;;;7.35;2.40;;;17.10;50.50;;;;;;1038384;28;20021;-74
2021/04/05 00:22:00;;;;;;;6.05;2.50;;;17.10;50.60;;;;;;1035898;28;20092;-74
2021/04/05 00:22:32;;;;;;;6.53;2.28;;;17.10;50.50;;;;;;1036827;28;20072;-74
2021/04/05 00:23:04;;;;;;;6.10;2.28;;;17.10;50.50;;;;;;1035381;28;20097;-74
2021/04/05 00:23:36;;;;;;;8.98;2.83;;;17.20;50.60;;;;;;1033970;28;20075;-75
2021/04/05 00:24:09;;;;;;;5.72;2.03;;;17.20;50.70;;;;;;1031654;28;20026;-74
2021/04/05 00:24:40;;;;;;;5.60;2.30;;;17.20;50.60;;;;;;1034464;28;20032;-74
2021/04/05 00:25:12;;;;;;;3.25;2.10;;;17.30;50.40;;;;;;1032661;28;20061;-75
2021/04/05 00:25:44;;;;;;;5.30;2.25;;;17.20;50.30;;;;;;1034739;28;20078;-76
2021/04/05 00:26:15;;;;;;;6.43;2.40;;;17.20;50.50;;;;;;1028785;28;20022;-75
2021/04/05 00:26:47;;;;;;;7.00;2.30;;;17.20;50.50;;;;;;1030151;28;20023;-75
2021/04/05 00:27:19;;;;;;;6.57;2.20;;;17.20;50.50;;;;;;1034748;28;20033;-76
2021/04/05 00:27:50;;;;;;;5.45;2.30;;;17.20;50.50;;;;;;1037337;28;20022;-76
2021/04/05 00:28:21;;;;;;;3.17;2.13;;;17.20;50.60;;;;;;1039884;28;20368;-75
2021/04/05 00:28:53;;;;;;;6.65;2.25;;;17.20;50.90;;;;;;1039996;28;20049;-75
2021/04/05 00:29:24;;;;;;;4.80;2.20;;;17.20;50.90;;;;;;1041927;28;20120;-75
2021/04/05 00:29:56;;;;;;;6.43;2.20;;;17.20;50.80;;;;;;1036924;28;20097;-76
2021/04/05 00:30:32;;;;;;;8.27;2.47;;;17.30;50.80;;;;;;1036612;28;20052;-77
2021/04/05 00:31:04;;;;;;;6.18;2.45;;;17.20;50.70;;;;;;1036845;28;20026;-75
2021/04/05 00:31:36;;;;;;;5.43;2.20;;;17.20;50.70;;;;;;1036604;28;20116;-76
2021/04/05 00:32:08;;;;;;;3.50;2.20;;;17.10;50.90;;;;;;1038489;28;20025;-76
2021/04/05 00:32:39;;;;;;;5.45;2.17;;;17.10;51.00;;;;;;1038326;28;20329;-75
2021/04/05 00:33:11;;;;;;;7.03;2.30;;;17.10;51.00;;;;;;1038073;28;20414;-76
2021/04/05 00:33:43;;;;;;;4.97;2.03;;;17.10;50.90;;;;;;1033062;28;20092;-75
2021/04/05 00:34:14;;;;;;;5.22;2.22;;;17.10;50.90;;;;;;1035061;28;20053;-75
2021/04/05 00:34:46;;;;;;;4.35;2.33;;;17.10;50.70;;;;;;1038015;28;20029;-74
2021/04/05 00:35:19;;;;;;;5.03;2.22;;;17.10;51.20;;;;;;1037611;28;20096;-76
2021/04/05 00:35:51;;;;;;;7.15;2.38;;;17.10;50.50;;;;;;1040408;28;20026;-75
2021/04/05 00:36:22;;;;;;;6.07;2.10;;;17.10;50.30;;;;;;1040982;28;20080;-75
2021/04/05 00:36:53;;;;;;;4.38;2.17;;;17.10;50.30;;;;;;1044857;28;20021;-75
2021/04/05 00:37:25;;;;;;;7.00;2.10;;;17.10;50.30;;;;;;1037987;28;20017;-75
2021/04/05 00:37:57;;;;;;;4.57;2.28;;;17.00;50.30;;;;;;1040618;28;20510;-75
2021/04/05 00:38:29;;;;;;;4.18;2.22;;;17.10;50.40;;;;;;1036717;28;20384;-76
2021/04/05 00:39:00;;;;;;;6.40;2.25;;;17.00;50.50;;;;;;1035758;28;20026;-76
2021/04/05 00:39:32;;;;;;;5.82;2.20;;;17.00;50.50;;;;;;1037014;28;20045;-76
2021/04/05 00:40:09;;;;;;;7.47;2.28;;;17.00;50.40;;;;;;1036638;28;20460;-76
2021/04/05 00:40:50;;;;;;;5.00;2.40;;;17.00;50.70;;;;;;1035978;28;20034;-76
2021/04/05 00:41:22;;;;;;;3.67;2.10;;;17.00;50.60;;;;;;1041036;28;20117;-76
2021/04/05 00:41:54;;;;;;;4.78;2.10;;;17.00;50.70;;;;;;1037772;28;20109;-75
2021/04/05 00:42:25;;;;;;;4.05;2.10;;;16.90;50.70;;;;;;1034732;28;20023;-75
2021/04/05 00:42:57;;;;;;;4.65;2.30;;;16.90;50.90;;;;;;1029682;28;20081;-75
2021/04/05 00:43:29;;;;;;;6.30;2.70;;;16.90;51.10;;;;;;1034315;28;20033;-76
2021/04/05 00:44:00;;;;;;;5.28;2.40;;;16.80;51.10;;;;;;1040786;28;20428;-76
2021/04/05 00:44:32;;;;;;;6.70;2.55;;;16.80;51.10;;;;;;1042294;28;20359;-75
2021/04/05 00:45:16;;;;;;;5.30;2.30;;;16.90;51.20;;;;;;1047070;28;20013;-75
2021/04/05 00:45:48;;;;;;;7.72;2.50;;;16.80;51.20;;;;;;1040685;28;20036;-75
2021/04/05 00:46:23;;;;;;;5.40;2.78;;;16.80;51.40;;;;;;1038287;28;20108;-75
2021/04/05 00:46:55;;;;;;;6.43;2.15;;;16.80;51.30;;;;;;1044621;28;20395;-75
2021/04/05 00:47:26;;;;;;;5.55;2.13;;;16.80;51.40;;;;;;1043694;28;20029;-75
2021/04/05 00:47:57;;;;;;;3.78;2.10;;;16.80;51.30;;;;;;1038995;28;20026;-75
2021/04/05 00:48:29;;;;;;;5.38;2.13;;;16.80;51.30;;;;;;1033228;28;20516;-75
2021/04/05 00:49:01;;;;;;;3.83;2.00;;;16.90;51.50;;;;;;1030370;28;20067;-75
2021/04/05 00:49:32;;;;;;;6.18;2.20;;;16.90;51.20;;;;;;1039294;28;20062;-74
2021/04/05 00:50:18;;;;;;;5.47;2.22;;;16.90;51.10;;;;;;1037560;28;20188;-75
2021/04/05 00:51:01;;;;;;;7.75;2.60;;;16.90;51.10;;;;;;1036893;28;20020;-75
2021/04/05 00:51:32;;;;;;;5.85;2.10;;;16.90;51.20;;;;;;1034116;28;20421;-75
2021/04/05 00:52:05;;;;;;;5.43;2.22;;;16.90;51.30;;;;;;1039314;28;20463;-75
2021/04/05 00:52:37;;;;;;;3.70;2.00;;;16.90;51.40;;;;;;1037938;28;20026;-75
2021/04/05 00:53:11;;;;;;;4.75;2.13;;;16.90;51.20;;;;;;1036851;28;20097;-78
2021/04/05 00:53:44;;;;;;;4.45;1.90;;;16.90;51.10;;;;;;1037745;28;20014;-76
2021/04/05 00:54:16;;;;;;;4.90;2.13;;;16.90;51.20;;;;;;1044708;28;20434;-77
2021/04/05 00:54:48;;;;;;;3.75;1.80;;;16.80;51.30;;;;;;1044147;28;20486;-76
2021/04/05 00:55:20;;;;;;;6.30;2.17;;;16.80;51.20;;;;;;1041545;28;20167;-77
2021/04/05 00:55:52;;;;;;;6.05;2.15;;;16.80;51.00;;;;;;1044221;28;20060;-76
2021/04/05 00:56:28;;;;;;;4.72;2.33;;;16.80;51.10;;;;;;1039815;28;20455;-77
2021/04/05 00:56:59;;;;;;;4.85;2.22;;;16.80;51.20;;;;;;1041094;28;20037;-77
2021/04/05 00:57:31;;;;;;;5.82;2.30;;;16.70;51.30;;;;;;1038036;28;20058;-77
2021/04/05 00:58:04;;;;;;;4.63;2.20;;;16.70;51.40;;;;;;1042198;28;20045;-76
2021/04/05 00:58:36;;;;;;;7.65;2.40;;;16.70;51.60;;;;;;1041666;28;20026;-76
2021/04/05 00:59:08;;;;;;;5.15;2.08;;;16.70;51.60;;;;;;1038321;28;20018;-77
2021/04/05 00:59:40;;;;;;;3.55;2.10;;;16.70;51.70;;;;;;1038596;28;20021;-77
2021/04/05 01:00:20;;;;;;;5.82;2.30;;;16.70;51.50;;;;;;1038600;28;20117;-77
2021/04/05 01:00:54;;;;;;;4.13;2.05;;;16.70;51.70;;;;;;1041946;28;20064;-77
2021/04/05 01:01:27;;;;;;;4.50;2.10;;;16.70;51.70;;;;;;1038426;28;20022;-76
2021/04/05 01:01:59;;;;;;;4.35;1.92;;;16.70;51.40;;;;;;1040659;28;20033;-77
2021/04/05 01:02:33;;;;;;;4.80;2.17;;;16.70;51.10;;;;;;1040263;28;20021;-76
2021/04/05 01:03:05;;;;;;;4.55;1.92;;;16.70;50.80;;;;;;1038041;28;20508;-76
2021/04/05 01:03:39;;;;;;;4.20;2.22;;;16.70;50.90;;;;;;1040489;28;20056;-76
2021/04/05 01:04:11;;;;;;;7.20;2.45;;;16.80;50.80;;;;;;1036514;28;20026;-77
2021/04/05 01:04:42;;;;;;;8.63;2.10;;;16.70;50.90;;;;;;1037579;28;20391;-77
2021/04/05 01:05:14;;;;;;;4.45;1.98;;;16.70;50.90;;;;;;1035410;28;20093;-77
2021/04/05 01:05:57;;;;;;;5.43;2.20;;;16.80;50.80;;;;;;1038011;28;20039;-76
2021/04/05 01:06:31;;;;;;;5.43;2.08;;;16.80;50.60;;;;;;1032838;28;20023;-76
2021/04/05 01:07:02;;;;;;;5.45;2.20;;;16.70;50.70;;;;;;1036523;28;20022;-76
2021/04/05 01:07:34;;;;;;;6.32;2.20;;;16.70;50.80;;;;;;1041562;28;20055;-77
2021/04/05 01:08:09;;;;;;;5.82;2.05;;;16.70;50.80;;;;;;1042465;28;20442;-76
2021/04/05 01:08:41;;;;;;;3.63;1.83;;;16.70;50.50;;;;;;1040643;28;20093;-77
2021/04/05 01:09:13;;;;;;;4.07;2.10;;;16.70;50.70;;;;;;1040997;28;20062;-76
2021/04/05 01:09:46;;;;;;;5.07;2.08;;;16.70;50.80;;;;;;1035447;28;20018;-76
2021/04/05 01:10:17;;;;;;;5.43;1.98;;;16.70;50.90;;;;;;1032307;28;20117;-76
2021/04/05 01:10:49;;;;;;;5.32;2.10;;;16.60;51.00;;;;;;1032278;28;20022;-76
2021/04/05 01:11:22;;;;;;;5.07;2.20;;;16.60;50.70;;;;;;1035313;28;20023;-76
2021/04/05 01:11:54;;;;;;;4.05;2.00;;;16.70;50.60;;;;;;1036450;28;20086;-77
2021/04/05 01:12:25;;;;;;;4.38;2.30;;;16.70;50.60;;;;;;1033413;28;20022;-77
2021/04/05 01:12:56;;;;;;;4.25;2.00;;;16.60;50.70;;;;;;1032534;28;20022;-76
2021/04/05 01:13:28;;;;;;;4.05;2.00;;;16.60;50.60;;;;;;1032654;28;20030;-76
2021/04/05 01:13:59;;;;;;;4.78;2.10;;;16.60;50.60;;;;;;1032762;28;20053;-76
2021/04/05 01:14:31;;;;;;;4.45;2.03;;;16.60;50.80;;;;;;1034015;28;20053;-76
2021/04/05 01:15:06;;;;;;;6.47;2.10;;;16.60;50.80;;;;;;1038308;28;20462;-77
2021/04/05 01:15:37;;;;;;;3.92;1.90;;;16.50;50.70;;;;;;1040838;28;20022;-77
2021/04/05 01:16:10;;;;;;;4.07;2.08;;;16.50;50.80;;;;;;1037056;28;20025;-76
2021/04/05 01:16:41;;;;;;;4.28;1.95;;;16.50;51.00;;;;;;1036982;28;20471;-76
2021/04/05 01:17:12;;;;;;;4.78;2.10;;;16.40;51.00;;;;;;1036414;28;20030;-77
2021/04/05 01:17:46;;;;;;;5.10;2.08;;;16.40;51.10;;;;;;1042375;28;20175;-76
2021/04/05 01:18:17;;;;;;;4.05;2.17;;;16.40;51.10;;;;;;1032626;28;20340;-77
2021/04/05 01:18:49;;;;;;;2.72;1.90;;;16.30;51.30;;;;;;1032796;28;20099;-77
2021/04/05 01:19:20;;;;;;;4.90;2.17;;;16.30;51.30;;;;;;1039690;28;20033;-77
2021/04/05 01:19:52;;;;;;;6.22;2.30;;;16.30;51.50;;;;;;1034139;28;21122;-77
2021/04/05 01:20:24;;;;;;;6.13;1.92;;;16.30;51.30;;;;;;1037480;28;20022;-77
2021/04/05 01:20:56;;;;;;;4.57;2.10;;;16.40;51.20;;;;;;1037734;28;20060;-77
2021/04/05 01:21:28;;;;;;;4.75;2.20;;;16.40;51.70;;;;;;1040628;28;20502;-75
2021/04/05 01:22:00;;;;;;;4.82;2.03;;;16.30;51.10;;;;;;1036808;28;20367;-76
2021/04/05 01:22:31;;;;;;;5.07;1.83;;;16.30;51.30;;;;;;1043915;28;20445;-76
2021/04/05 01:23:04;;;;;;;5.82;2.25;;;16.20;51.30;;;;;;1044239;28;20052;-76
2021/04/05 01:23:37;;;;;;;4.80;2.15;;;16.30;51.40;;;;;;1043943;28;20017;-76
2021/04/05 01:24:08;;;;;;;4.65;2.15;;;16.30;51.40;;;;;;1038507;28;20030;-76
2021/04/05 01:24:40;;;;;;;5.18;2.00;;;16.20;51.50;;;;;;1038900;28;20479;-76
2021/04/05 01:25:14;;;;;;;4.43;1.98;;;16.20;51.90;;;;;;1039296;28;20013;-76
2021/04/05 01:25:46;;;;;;;6.78;2.20;;;16.20;51.90;;;;;;1034152;28;20412;-75
2021/04/05 01:26:18;;;;;;;3.67;1.98;;;16.20;51.40;;;;;;1036594;28;20117;-76
2021/04/05 01:26:50;;;;;;;4.38;1.92;;;16.20;51.30;;;;;;1040633;28;20065;-76
2021/04/05 01:27:21;;;;;;;4.30;1.85;;;16.20;51.10;;;;;;1041781;28;20021;-76
2021/04/05 01:27:54;;;;;;;4.18;1.90;;;16.10;51.20;;;;;;1039815;28;20473;-76
2021/04/05 01:28:25;;;;;;;4.75;1.98;;;16.20;51.20;;;;;;1039062;28;20022;-76
2021/04/05 01:28:57;;;;;;;4.32;1.90;;;16.10;51.20;;;;;;1039218;28;20089;-76
2021/04/05 01:29:28;;;;;;;4.80;2.10;;;16.10;51.30;;;;;;1040904;28;20018;-76
2021/04/05 01:30:00;;;;;;;3.83;1.90;;;16.10;51.40;;;;;;1038502;28;20009;-75
2021/04/05 01:30:39;;;;;;;4.03;1.90;;;16.00;51.50;;;;;;1038340;28;20438;-76
2021/04/05 01:31:10;;;;;;;4.05;1.90;;;16.10;51.40;;;;;;1040606;28;20439;-76
2021/04/05 01:31:42;;;;;;;3.75;2.10;;;16.00;51.30;;;;;;1036581;28;20344;-76
2021/04/05 01:32:13;;;;;;;4.88;2.08;;;16.00;51.40;;;;;;1036432;28;20112;-76
2021/04/05 01:32:45;;;;;;;4.85;2.20;;;16.00;52.00;;;;;;1037336;28;20014;-76
2021/04/05 01:33:21;;;;;;;5.07;1.80;;;16.00;51.50;;;;;;1042031;28;20100;-76
2021/04/05 01:33:53;;;;;;;6.47;2.10;;;15.90;51.80;;;;;;1038782;28;20022;-76
2021/04/05 01:34:24;;;;;;;4.80;2.10;;;16.00;51.80;;;;;;1033372;28;20046;-76
2021/04/05 01:34:56;;;;;;;4.47;2.20;;;16.00;51.70;;;;;;1032004;28;20444;-76
2021/04/05 01:35:28;;;;;;;5.07;1.90;;;16.00;51.60;;;;;;1029730;28;20051;-75
2021/04/05 01:36:05;;;;;;;5.55;2.33;;;15.90;51.80;;;;;;1033720;28;20015;-77
2021/04/05 01:36:37;;;;;;;3.38;1.90;;;16.00;51.90;;;;;;1041282;28;20144;-76
2021/04/05 01:37:08;;;;;;;6.68;2.00;;;15.90;52.00;;;;;;1037044;28;20424;-75
2021/04/05 01:37:40;;;;;;;5.97;2.15;;;15.90;52.10;;;;;;1039628;28;20035;-75
2021/04/05 01:38:19;;;;;;;5.75;2.20;;;15.90;52.20;;;;;;1036594;28;20121;-76
2021/04/05 01:38:53;;;;;;;7.40;2.13;;;15.90;52.20;;;;;;1030507;28;20011;-74
2021/04/05 01:39:26;;;;;;;5.53;2.15;;;15.90;52.10;;;;;;1033536;28;20073;-76
2021/04/05 01:39:57;;;;;;;5.30;1.75;;;15.90;52.10;;;;;;1037039;28;20455;-75
2021/04/05 01:40:29;;;;;;;6.50;2.10;;;15.90;52.20;;;;;;1034698;28;20089;-73
2021/04/05 01:41:07;;;;;;;4.82;2.17;;;15.90;52.10;;;;;;1036233;28;20023;-76
2021/04/05 01:41:38;;;;;;;5.65;2.28;;;15.90;52.30;;;;;;1037114;28;20045;-76
2021/04/05 01:42:10;;;;;;;7.53;2.70;;;15.80;52.20;;;;;;1036928;28;20021;-76
2021/04/05 01:42:41;;;;;;;5.68;2.38;;;15.90;52.20;;;;;;1038426;28;20463;-76
2021/04/05 01:43:13;;;;;;;5.93;2.28;;;15.80;52.30;;;;;;1038395;28;20448;-76
2021/04/05 01:43:45;;;;;;;4.47;1.73;;;15.80;52.40;;;;;;1041337;28;20006;-76
2021/04/05 01:44:16;;;;;;;3.80;1.90;;;15.80;52.50;;;;;;1041266;28;20108;-76
2021/04/05 01:44:47;;;;;;;5.88;2.40;;;15.70;52.70;;;;;;1037015;28;20021;-76
2021/04/05 01:45:19;;;;;;;6.13;2.40;;;15.70;52.90;;;;;;1038158;28;20018;-76
2021/04/05 01:45:54;;;;;;;4.85;2.08;;;15.70;52.90;;;;;;1037202;28;20013;-76
2021/04/05 01:46:27;;;;;;;4.95;1.98;;;15.70;52.90;;;;;;1037335;28;20049;-75
2021/04/05 01:46:59;;;;;;;3.88;2.00;;;15.70;52.90;;;;;;1037328;28;20005;-75
2021/04/05 01:47:30;;;;;;;4.60;2.08;;;15.80;52.80;;;;;;1036683;28;20010;-75
2021/04/05 01:48:02;;;;;;;4.55;1.80;;;15.80;52.70;;;;;;1038164;28;20006;-75
2021/04/05 01:48:34;;;;;;;2.85;1.67;;;15.80;52.60;;;;;;1040555;28;20010;-74
2021/04/05 01:49:06;;;;;;;3.78;2.13;;;15.80;52.70;;;;;;1040500;28;20347;-74
2021/04/05 01:49:40;;;;;;;3.70;1.75;;;15.70;52.80;;;;;;1037884;28;20010;-74
2021/04/05 01:50:13;;;;;;;4.97;2.03;;;15.70;52.90;;;;;;1034100;28;20006;-75
2021/04/05 01:50:44;;;;;;;6.30;2.20;;;15.70;52.90;;;;;;1039124;28;20025;-75
2021/04/05 01:51:24;;;;;;;5.30;2.10;;;15.60;52.90;;;;;;1039033;28;20097;-75
2021/04/05 01:51:56;;;;;;;4.03;2.10;;;15.60;53.10;;;;;;1042467;28;20014;-74
2021/04/05 01:52:27;;;;;;;3.78;2.25;;;15.60;53.10;;;;;;1041513;28;20014;-73
2021/04/05 01:53:03;;;;;;;4.47;1.75;;;15.50;53.20;;;;;;1042254;28;20025;-74
2021/04/05 01:53:35;;;;;;;4.82;1.88;;;15.50;53.30;;;;;;1042490;28;20026;-74
2021/04/05 01:54:07;;;;;;;5.20;2.28;;;15.50;53.30;;;;;;1041887;28;20084;-75
2021/04/05 01:54:38;;;;;;;3.92;1.70;;;15.60;53.30;;;;;;1041671;28;20355;-75
2021/04/05 01:55:11;;;;;;;3.00;1.52;;;15.60;53.30;;;;;;1040662;28;20063;-75
2021/04/05 01:55:42;;;;;;;5.63;2.15;;;15.50;53.40;;;;;;1042348;28;20009;-75
2021/04/05 01:56:16;;;;;;;4.20;1.98;;;15.50;53.40;;;;;;1042925;28;20103;-75
2021/04/05 01:56:48;;;;;;;3.63;1.90;;;15.60;53.50;;;;;;1042366;28;20017;-74
2021/04/05 01:57:19;;;;;;;2.35;1.60;;;15.60;53.40;;;;;;1040912;28;20104;-74
2021/04/05 01:57:50;;;;;;;3.88;1.95;;;15.50;53.50;;;;;;1039076;28;20439;-74
2021/04/05 01:58:22;;;;;;;5.45;2.00;;;15.50;53.40;;;;;;1039046;28;20024;-75
2021/04/05 01:58:55;;;;;;;5.38;1.73;;;15.50;53.40;;;;;;1038467;28;20068;-75
2021/04/05 01:59:26;;;;;;;5.05;1.80;;;15.50;53.50;;;;;;1038656;28;20108;-74
2021/04/05 01:59:57;;;;;;;7.05;2.10;;;15.50;53.40;;;;;;1038569;28;20028;-74
2021/04/05 02:00:34;;;;;;;6.38;2.05;;;15.50;53.50;;;;;;1038531;28;20021;-74
2021/04/05 02:01:11;;;;;;;7.00;2.13;;;15.50;53.50;;;;;;1038638;28;20018;-73
2021/04/05 02:01:42;;;;;;;5.18;2.10;;;15.50;53.60;;;;;;1043069;28;20014;-74
2021/04/05 02:02:14;;;;;;;6.32;2.10;;;15.40;53.70;;;;;;1042840;28;20005;-74
2021/04/05 02:02:46;;;;;;;5.75;2.00;;;15.40;53.80;;;;;;1042329;28;20045;-74
2021/04/05 02:03:18;;;;;;;2.35;1.80;;;15.40;53.80;;;;;;1043048;28;20502;-74
2021/04/05 02:03:51;;;;;;;4.35;1.88;;;15.40;53.90;;;;;;1042621;28;20486;-73
2021/04/05 02:04:22;;;;;;;4.75;1.88;;;15.30;53.90;;;;;;1042822;28;20339;-74
2021/04/05 02:04:55;;;;;;;7.00;1.92;;;15.40;54.00;;;;;;1037637;28;20066;-74
2021/04/05 02:05:29;;;;;;;5.40;2.25;;;15.40;54.10;;;;;;1034979;28;20018;-74
2021/04/05 02:06:05;;;;;;;5.18;1.90;;;15.30;54.10;;;;;;1034165;28;20014;-74
2021/04/05 02:06:36;;;;;;;4.47;1.73;;;15.30;54.10;;;;;;1035816;28;20026;-73
2021/04/05 02:07:08;;;;;;;5.22;2.08;;;15.30;54.20;;;;;;1038342;28;20013;-74
2021/04/05 02:07:40;;;;;;;4.78;2.00;;;15.30;54.30;;;;;;1038957;28;20018;-73
2021/04/05 02:08:13;;;;;;;3.97;2.00;;;15.20;54.40;;;;;;1038594;28;20026;-74
2021/04/05 02:08:46;;;;;;;3.78;1.73;;;15.30;54.50;;;;;;1038535;28;20091;-74
2021/04/05 02:09:17;;;;;;;5.82;2.10;;;15.20;54.40;;;;;;1038549;28;20010;-74
2021/04/05 02:09:48;;;;;;;5.05;1.90;;;15.20;54.50;;;;;;1042343;28;20032;-75
2021/04/05 02:10:24;;;;;;;3.60;1.83;;;15.10;54.50;;;;;;1037226;28;20033;-75
2021/04/05 02:10:59;;;;;;;4.75;1.95;;;15.10;54.50;;;;;;1042746;28;20029;-75
2021/04/05 02:11:36;;;;;;;4.45;1.90;;;15.10;54.70;;;;;;1038274;28;20033;-74
2021/04/05 02:12:08;;;;;;;3.25;1.77;;;15.10;54.80;;;;;;1038030;28;20022;-73
2021/04/05 02:12:40;;;;;;;3.38;2.00;;;15.10;54.80;;;;;;1037951;28;20056;-73
2021/04/05 02:13:13;;;;;;;4.45;1.90;;;15.00;54.90;;;;;;1035791;28;20029;-73
2021/04/05 02:13:50;;;;;;;3.92;2.10;;;15.00;54.90;;;;;;1038812;28;20026;-73
2021/04/05 02:14:21;;;;;;;4.50;1.98;;;15.00;55.00;;;;;;1037823;28;20014;-73
2021/04/05 02:14:52;;;;;;;5.28;2.13;;;15.00;55.00;;;;;;1038627;28;20014;-73
2021/04/05 02:15:25;;;;;;;4.05;2.10;;;15.00;55.00;;;;;;1038822;28;20021;-73
2021/04/05 02:15:57;;;;;;;5.40;2.20;;;15.00;55.10;;;;;;1042491;28;20030;-73
2021/04/05 02:16:28;;;;;;;3.92;2.00;;;15.00;55.10;;;;;;1042781;28;20078;-73
2021/04/05 02:17:00;;;;;;;4.93;2.10;;;14.90;55.10;;;;;;1042352;28;20470;-73
2021/04/05 02:17:31;;;;;;;6.78;2.00;;;14.90;55.10;;;;;;1042627;28;20017;-73
2021/04/05 02:18:03;;;;;;;5.35;2.20;;;14.90;55.20;;;;;;1042810;28;20026;-72
2021/04/05 02:18:37;;;;;;;3.47;1.92;;;14.90;55.30;;;;;;1042425;28;20056;-73
2021/04/05 02:19:08;;;;;;;5.07;2.20;;;14.90;55.30;;;;;;1042832;28;20024;-72
2021/04/05 02:19:40;;;;;;;5.95;2.10;;;14.90;55.30;;;;;;1041363;28;20021;-72
2021/04/05 02:20:14;;;;;;;4.82;2.10;;;14.80;55.20;;;;;;1038469;28;20022;-73
2021/04/05 02:20:46;;;;;;;4.55;2.00;;;14.80;55.30;;;;;;1038623;28;20084;-73
2021/04/05 02:21:20;;;;;;;6.22;2.30;;;14.90;55.10;;;;;;1039145;28;20020;-72
2021/04/05 02:21:53;;;;;;;5.55;2.10;;;14.90;55.00;;;;;;1034607;28;20046;-73
2021/04/05 02:22:25;;;;;;;2.97;2.00;;;14.90;54.90;;;;;;1035559;28;20025;-73
2021/04/05 02:22:59;;;;;;;4.65;1.95;;;14.90;55.50;;;;;;1034093;28;20130;-73
2021/04/05 02:23:30;;;;;;;3.90;2.10;;;14.80;55.20;;;;;;1035099;28;20022;-73
2021/04/05 02:24:05;;;;;;;5.03;1.90;;;14.80;55.20;;;;;;1034220;28;20433;-74
2021/04/05 02:24:36;;;;;;;5.13;2.08;;;14.80;55.40;;;;;;1035328;28;20318;-74
2021/04/05 02:25:13;;;;;;;9.32;2.28;;;14.80;55.40;;;;;;1032256;28;20019;-74
2021/04/05 02:26:07;;;;;;;4.03;2.10;;;14.80;55.50;;;;;;1039767;28;20108;-74
2021/04/05 02:26:39;;;;;;;4.57;2.15;;;14.80;55.50;;;;;;1039688;28;20038;-74
2021/04/05 02:27:11;;;;;;;5.68;2.20;;;14.80;55.60;;;;;;1040341;28;20021;-74
2021/04/05 02:27:48;;;;;;;6.15;2.17;;;14.80;55.40;;;;;;1036635;28;20624;-74
2021/04/05 02:28:20;;;;;;;3.45;1.98;;;14.80;55.60;;;;;;1038181;28;20034;-75
2021/04/05 02:28:59;;;;;;;3.42;1.88;;;14.70;55.70;;;;;;1037932;28;20029;-74
2021/04/05 02:29:30;;;;;;;5.00;2.25;;;14.70;55.70;;;;;;1040822;28;20013;-75
2021/04/05 02:30:02;;;;;;;8.32;2.35;;;14.70;55.70;;;;;;1034362;28;20034;-75
2021/04/05 02:30:34;;;;;;;4.28;2.20;;;14.70;55.70;;;;;;1036354;28;20030;-75
2021/04/05 02:31:07;;;;;;;5.95;2.15;;;14.80;55.70;;;;;;1036246;28;20452;-75
2021/04/05 02:31:43;;;;;;;5.22;2.42;;;14.70;55.70;;;;;;1035585;28;20030;-75
2021/04/05 02:32:14;;;;;;;5.35;1.92;;;14.70;55.90;;;;;;1036720;28;20033;-74
2021/04/05 02:32:45;;;;;;;6.30;2.28;;;14.70;55.90;;;;;;1039474;28;20030;-75
2021/04/05 02:33:17;;;;;;;4.30;2.10;;;14.70;55.90;;;;;;1039580;28;20021;-75
2021/04/05 02:33:54;;;;;;;7.55;2.30;;;14.60;55.90;;;;;;1037951;28;20065;-76
2021/04/05 02:34:25;;;;;;;6.95;1.90;;;14.60;56.10;;;;;;1035900;28;20385;-75
2021/04/05 02:34:57;;;;;;;3.00;2.10;;;14.50;56.10;;;;;;1036205;28;20022;-76
2021/04/05 02:35:32;;;;;;;4.30;2.13;;;14.50;56.20;;;;;;1040970;28;20100;-75
2021/04/05 02:36:06;;;;;;;6.47;1.98;;;14.50;56.40;;;;;;1037601;28;21952;-75
2021/04/05 02:36:39;;;;;;;4.40;2.05;;;14.50;56.40;;;;;;1040703;28;20032;-74
2021/04/05 02:37:13;;;;;;;5.97;2.15;;;14.50;56.40;;;;;;1040569;28;20946;-74
2021/04/05 02:37:45;;;;;;;4.38;1.92;;;14.50;56.40;;;;;;1044855;28;20431;-74
2021/04/05 02:38:17;;;;;;;4.60;2.20;;;14.50;56.60;;;;;;1045375;28;20017;-74
2021/04/05 02:38:51;;;;;;;3.28;1.85;;;14.50;56.70;;;;;;1041230;28;20028;-74
2021/04/05 02:39:23;;;;;;;5.75;2.17;;;14.40;56.60;;;;;;1037846;28;20021;-74
2021/04/05 02:39:55;;;;;;;5.40;2.30;;;14.50;56.60;;;;;;1037467;28;20365;-74
2021/04/05 02:40:27;;;;;;;5.53;2.10;;;14.50;56.70;;;;;;1034228;28;20049;-75
2021/04/05 02:40:58;;;;;;;3.72;2.00;;;14.50;57.00;;;;;;1033512;28;20030;-75
2021/04/05 02:41:31;;;;;;;5.80;2.38;;;14.50;56.70;;;;;;1033459;28;20085;-75
2021/04/05 02:42:03;;;;;;;6.43;2.40;;;14.50;56.60;;;;;;1035293;28;20068;-74
2021/04/05 02:42:35;;;;;;;6.50;2.20;;;14.40;56.70;;;;;;1040686;28;20057;-75
2021/04/05 02:43:06;;;;;;;5.47;2.28;;;14.40;56.90;;;;;;1039155;28;20025;-74
2021/04/05 02:43:38;;;;;;;4.25;2.15;;;14.40;57.00;;;;;;1038164;28;20026;-75
2021/04/05 02:44:10;;;;;;;6.00;2.20;;;14.30;57.20;;;;;;1034015;28;20356;-74
2021/04/05 02:44:43;;;;;;;8.55;2.78;;;14.30;57.30;;;;;;1031494;28;20523;-74
2021/04/05 02:45:17;;;;;;;5.53;2.05;;;14.30;57.30;;;;;;1029480;28;20026;-74
2021/04/05 02:45:49;;;;;;;3.80;2.13;;;14.20;57.40;;;;;;1029596;28;20015;-74
2021/04/05 02:46:34;;;;;;;7.80;2.38;;;14.20;57.50;;;;;;1029544;28;20093;-74
2021/04/05 02:47:06;;;;;;;4.78;2.38;;;14.30;57.70;;;;;;1035546;28;20467;-74
2021/04/05 02:47:38;;;;;;;6.22;2.35;;;14.30;57.50;;;;;;1038405;28;20022;-74
2021/04/05 02:48:11;;;;;;;6.15;2.40;;;14.20;58.30;;;;;;1037725;28;20017;-74
2021/04/05 02:48:46;;;;;;;8.95;2.53;;;14.10;57.80;;;;;;1037902;28;20021;-73
2021/04/05 02:49:19;;;;;;;5.45;2.40;;;14.10;57.90;;;;;;1036665;28;20025;-75
2021/04/05 02:49:51;;;;;;;8.23;2.40;;;14.10;58.00;;;;;;1036641;28;20084;-74
2021/04/05 02:50:24;;;;;;;7.18;2.30;;;14.10;57.90;;;;;;1038171;28;20064;-74
2021/04/05 02:50:57;;;;;;;7.90;2.40;;;14.10;57.80;;;;;;1038868;28;20078;-74